Time;durP1;ratioP1;P1;durP2;ratioP2;P2;SDS_P1;SDS_P2;PMS_P1;PMS_P2;Temp;Humidity;BMP_temperature;BMP_pressure;BME280_temperature;BME280_humidity;BME280_pressure;Samples;Min_cycle;Max_cycle;Signal;HPM_P1;HPM_P2
2024/02/27 00:00:12;;;;;;;0.10;0.10;;;;;;;7.61;54.58;101647.88;7365967;19;20105;-62
2024/02/27 00:02:38;;;;;;;0.10;0.10;;;;;;;7.60;54.85;101647.84;7365138;19;20032;-62
2024/02/27 00:05:04;;;;;;;0.00;0.00;;;;;;;7.58;55.14;101633.97;7364981;19;20034;-62
2024/02/27 00:07:29;;;;;;;0.00;0.00;;;;;;;7.56;54.73;101635.72;7357602;19;20018;-62
2024/02/27 00:09:57;;;;;;;0.00;0.00;;;;;;;7.55;54.86;101627.03;7335823;19;20498;-62
2024/02/27 00:12:22;;;;;;;0.10;0.10;;;;;;;7.55;55.03;101640.03;7365329;19;20018;-62
2024/02/27 00:14:48;;;;;;;0.00;0.00;;;;;;;7.57;54.91;101647.84;7359196;19;20419;-62
2024/02/27 00:17:13;;;;;;;0.00;0.00;;;;;;;7.53;54.91;101640.03;7366314;19;20482;-62
2024/02/27 00:19:38;;;;;;;0.10;0.10;;;;;;;7.56;55.19;101641.78;7352647;19;20069;-62
2024/02/27 00:22:04;;;;;;;0.00;0.00;;;;;;;7.57;54.68;101642.66;7363175;19;20513;-62
2024/02/27 00:24:29;;;;;;;0.10;0.10;;;;;;;7.56;55.11;101638.31;7359935;19;20029;-62
2024/02/27 00:26:55;;;;;;;0.03;0.03;;;;;;;7.54;55.00;101627.91;7363892;19;20018;-62
2024/02/27 00:29:21;;;;;;;0.00;0.00;;;;;;;7.40;55.31;101598.38;7363247;19;20078;-62
2024/02/27 00:31:47;;;;;;;0.00;0.00;;;;;;;7.53;54.95;101611.44;7349772;19;20819;-62
2024/02/27 00:34:12;;;;;;;0.00;0.00;;;;;;;7.53;55.33;101601.03;7362410;19;20078;-63
2024/02/27 00:36:38;;;;;;;0.10;0.10;;;;;;;7.53;54.98;101601.03;7365552;19;20007;-61
2024/02/27 00:39:03;;;;;;;0.00;0.00;;;;;;;7.52;54.76;101598.44;7365275;19;20019;-62
2024/02/27 00:41:28;;;;;;;0.10;0.10;;;;;;;7.56;55.22;101599.34;7363678;19;20006;-62
2024/02/27 00:43:54;;;;;;;0.10;0.10;;;;;;;7.56;54.74;101600.19;7367867;19;20502;-62
2024/02/27 00:46:19;;;;;;;0.00;0.00;;;;;;;7.56;55.15;101588.94;7352225;19;20014;-62
2024/02/27 00:48:45;;;;;;;0.10;0.10;;;;;;;7.54;54.98;101584.56;7363709;19;20014;-61
2024/02/27 00:51:10;;;;;;;0.10;0.10;;;;;;;7.54;55.10;101570.72;7355678;19;20142;-62
2024/02/27 00:53:36;;;;;;;0.00;0.00;;;;;;;7.53;55.42;101569.84;7363269;19;20018;-61
2024/02/27 00:56:01;;;;;;;0.10;0.10;;;;;;;7.52;55.20;101570.72;7364244;19;20010;-62
2024/02/27 00:58:27;;;;;;;0.10;0.10;;;;;;;7.53;55.69;101572.44;7364353;19;20466;-62
2024/02/27 01:00:52;;;;;;;0.00;0.00;;;;;;;7.54;55.71;101574.19;7361495;19;20465;-62
2024/02/27 01:03:17;;;;;;;0.00;0.00;;;;;;;7.56;55.55;101574.22;7359563;19;20006;-61
2024/02/27 01:05:43;;;;;;;0.00;0.00;;;;;;;7.50;55.55;101566.34;7363175;19;20002;-62
2024/02/27 01:08:08;;;;;;;0.10;0.10;;;;;;;7.56;55.78;101571.59;7359682;19;20023;-62
2024/02/27 01:10:33;;;;;;;0.00;0.00;;;;;;;7.59;55.37;101573.34;7357130;19;20066;-62
2024/02/27 01:12:59;;;;;;;0.10;0.10;;;;;;;7.60;56.00;101581.13;7363642;19;20021;-62
2024/02/27 01:15:24;;;;;;;0.10;0.10;;;;;;;7.61;55.69;101576.81;7364859;19;20006;-62
2024/02/27 01:17:50;;;;;;;0.00;0.00;;;;;;;7.63;55.74;101585.47;7360749;19;20760;-62
2024/02/27 01:20:15;;;;;;;0.00;0.00;;;;;;;7.63;55.81;101593.28;7370918;19;20010;-62
2024/02/27 01:22:41;;;;;;;0.10;0.10;;;;;;;7.64;55.88;101608.88;7356952;19;20369;-62
2024/02/27 01:25:09;;;;;;;0.10;0.10;;;;;;;7.65;55.97;101594.13;7371932;19;20006;-62
2024/02/27 01:27:34;;;;;;;0.10;0.10;;;;;;;7.63;55.66;101586.34;7375535;19;20031;-62
2024/02/27 01:30:00;;;;;;;0.00;0.00;;;;;;;7.66;55.71;101588.97;7362643;19;20014;-62
2024/02/27 01:32:25;;;;;;;0.10;0.10;;;;;;;7.67;56.08;101592.44;7370402;19;20054;-62
2024/02/27 01:34:51;;;;;;;0.10;0.10;;;;;;;7.68;55.86;101594.16;7364706;19;20025;-62
2024/02/27 01:37:16;;;;;;;0.00;0.00;;;;;;;7.63;56.48;101569.88;7371196;19;20011;-62
2024/02/27 01:39:42;;;;;;;0.10;0.10;;;;;;;7.67;55.95;101585.50;7368030;19;20019;-62
2024/02/27 01:42:07;;;;;;;0.00;0.00;;;;;;;7.67;56.08;101582.03;7365831;19;20027;-62
2024/02/27 01:44:33;;;;;;;0.10;0.10;;;;;;;7.67;56.06;101576.84;7371212;19;20885;-62
2024/02/27 01:47:00;;;;;;;0.10;0.10;;;;;;;7.68;56.14;101578.56;7360909;19;20496;-62
2024/02/27 01:49:26;;;;;;;0.00;0.00;;;;;;;7.65;56.42;101575.94;7364439;19;20018;-62
2024/02/27 01:51:53;;;;;;;0.10;0.10;;;;;;;7.50;56.23;101553.38;7365032;19;20029;-62
2024/02/27 01:54:20;;;;;;;0.10;0.10;;;;;;;7.63;55.90;101570.75;7371017;19;20737;-62
2024/02/27 01:56:48;;;;;;;0.10;0.10;;;;;;;7.67;55.84;101561.25;7370752;19;20015;-62
2024/02/27 01:59:16;;;;;;;0.00;0.00;;;;;;;7.68;56.29;101568.16;7368609;19;20355;-62
2024/02/27 02:01:43;;;;;;;0.00;0.00;;;;;;;7.51;56.24;101519.59;7371237;19;20527;-63
2024/02/27 02:04:11;;;;;;;0.00;0.00;;;;;;;7.68;56.43;101547.38;7369072;19;20023;-63
2024/02/27 02:06:38;;;;;;;0.10;0.10;;;;;;;7.67;56.33;101545.66;7371205;19;20078;-62
2024/02/27 02:09:03;;;;;;;0.00;0.00;;;;;;;7.68;56.59;101542.16;7367353;19;20018;-62
2024/02/27 02:11:29;;;;;;;0.10;0.10;;;;;;;7.68;56.27;101539.56;7366319;19;20091;-62
2024/02/27 02:13:54;;;;;;;0.10;0.10;;;;;;;7.68;56.58;101529.19;7370646;19;20011;-62
2024/02/27 02:16:20;;;;;;;0.10;0.10;;;;;;;7.71;56.74;101539.59;7366717;19;20038;-62
2024/02/27 02:18:47;;;;;;;0.10;0.10;;;;;;;7.72;56.55;101529.19;7366785;19;20033;-62
2024/02/27 02:21:12;;;;;;;0.00;0.00;;;;;;;7.73;56.40;101510.13;7364578;19;20011;-62
2024/02/27 02:23:38;;;;;;;0.10;0.10;;;;;;;7.75;56.60;101510.97;7368758;19;20018;-62
2024/02/27 02:26:03;;;;;;;0.00;0.00;;;;;;;7.78;56.32;101503.19;7367296;19;20018;-61
2024/02/27 02:28:29;;;;;;;0.00;0.00;;;;;;;7.79;56.83;101498.84;7366113;19;20027;-62
2024/02/27 02:30:54;;;;;;;0.10;0.10;;;;;;;7.83;56.94;101498.00;7365744;19;20928;-62
2024/02/27 02:33:20;;;;;;;0.00;0.00;;;;;;;7.85;56.68;101493.66;7350988;19;20011;-62
2024/02/27 02:35:45;;;;;;;0.00;0.00;;;;;;;7.88;56.26;101491.06;7370235;19;20018;-62
2024/02/27 02:38:11;;;;;;;0.10;0.10;;;;;;;7.90;56.69;101491.06;7368457;19;20045;-61
2024/02/27 02:40:37;;;;;;;0.10;0.10;;;;;;;7.93;56.96;101484.16;7367591;19;20006;-62
2024/02/27 02:43:02;;;;;;;0.10;0.10;;;;;;;7.95;56.96;101481.53;7369734;19;20046;-62
2024/02/27 02:45:28;;;;;;;0.10;0.10;;;;;;;7.89;56.73;101453.78;7361824;19;20502;-62
2024/02/27 02:47:54;;;;;;;0.10;0.10;;;;;;;7.99;56.84;101473.75;7370630;19;21138;-62
2024/02/27 02:50:19;;;;;;;0.00;0.00;;;;;;;8.01;56.70;101459.03;7368109;19;20011;-62
2024/02/27 02:52:45;;;;;;;0.10;0.10;;;;;;;8.04;56.59;101448.59;7368910;19;20473;-61
2024/02/27 02:55:12;;;;;;;0.00;0.00;;;;;;;8.01;56.59;101438.22;7362599;19;20003;-62
2024/02/27 02:57:38;;;;;;;0.00;0.00;;;;;;;8.05;56.74;101424.31;7363731;19;20019;-62
2024/02/27 03:00:04;;;;;;;0.10;0.10;;;;;;;8.06;56.59;101400.06;7366903;19;20006;-62
2024/02/27 03:02:30;;;;;;;0.00;0.00;;;;;;;8.06;56.67;101394.84;7369048;19;20766;-62
2024/02/27 03:04:56;;;;;;;0.10;0.10;;;;;;;8.07;56.18;101383.59;7368622;19;20017;-62
2024/02/27 03:07:22;;;;;;;0.00;0.00;;;;;;;8.10;56.74;101400.03;7364573;19;20037;-62
2024/02/27 03:09:47;;;;;;;0.10;0.10;;;;;;;8.11;56.65;101402.66;7367958;19;20115;-62
2024/02/27 03:12:13;;;;;;;0.10;0.10;;;;;;;8.12;56.33;101398.31;7367528;19;20007;-62
2024/02/27 03:14:45;;;;;;;0.00;0.00;;;;;;;8.16;56.70;101390.50;7358998;19;20955;-62
2024/02/27 03:17:13;;;;;;;0.10;0.10;;;;;;;8.18;56.32;101385.28;7368032;19;20014;-62
2024/02/27 03:19:38;;;;;;;;;;;;;;;8.23;55.71;101388.75;7367399;19;20013;-62
2024/02/27 03:22:04;;;;;;;0.00;0.00;;;;;;;8.21;56.06;101398.28;7369267;19;19981;-62
2024/02/27 03:24:29;;;;;;;0.10;0.10;;;;;;;8.24;56.06;101395.69;7358098;19;20035;-63
2024/02/27 03:26:55;;;;;;;0.08;0.08;;;;;;;8.23;56.13;101392.22;7368065;19;20699;-62
2024/02/27 03:29:20;;;;;;;0.10;0.10;;;;;;;8.25;55.99;101389.59;7328129;19;20002;-62
2024/02/27 03:31:45;;;;;;;0.00;0.00;;;;;;;8.24;56.22;101377.47;7363886;19;20043;-62
2024/02/27 03:34:11;;;;;;;0.10;0.10;;;;;;;8.26;55.69;101365.31;7366212;19;20007;-62
2024/02/27 03:36:40;;;;;;;0.10;0.10;;;;;;;8.27;55.72;101359.25;7366573;19;20015;-62
2024/02/27 03:39:05;;;;;;;0.10;0.10;;;;;;;8.19;55.85;101341.06;7364706;19;20474;-61
2024/02/27 03:41:31;;;;;;;0.10;0.10;;;;;;;8.28;55.50;101338.44;7365791;19;19995;-62
2024/02/27 03:43:56;;;;;;;0.10;0.10;;;;;;;8.07;55.99;101289.94;7365540;19;20101;-64
2024/02/27 03:46:21;;;;;;;0.10;0.10;;;;;;;8.29;55.54;101313.28;7365943;19;20732;-62
2024/02/27 03:48:47;;;;;;;0.00;0.00;;;;;;;8.29;56.04;101318.47;7356494;19;20014;-62
2024/02/27 03:51:13;;;;;;;0.00;0.00;;;;;;;8.30;56.09;101309.78;7364012;19;20010;-62
2024/02/27 03:53:38;;;;;;;0.00;0.00;;;;;;;8.30;55.59;101309.78;7363369;19;20002;-62
2024/02/27 03:56:05;;;;;;;0.10;0.10;;;;;;;8.32;55.79;101302.88;7365097;19;20042;-62
2024/02/27 03:58:31;;;;;;;0.00;0.00;;;;;;;8.34;55.69;101311.53;7364651;19;20006;-64
2024/02/27 04:00:57;;;;;;;0.10;0.10;;;;;;;8.33;55.75;101284.63;7370464;19;20034;-62
2024/02/27 04:03:22;;;;;;;0.00;0.00;;;;;;;8.36;55.43;101285.47;7367034;19;20014;-62
2024/02/27 04:05:47;;;;;;;0.10;0.10;;;;;;;8.37;55.79;101274.25;7362313;19;20685;-62
2024/02/27 04:08:13;;;;;;;0.10;0.10;;;;;;;8.39;55.35;101268.16;7366891;19;20014;-61
2024/02/27 04:10:39;;;;;;;0.10;0.10;;;;;;;8.40;55.05;101263.81;7354498;19;20085;-62
2024/02/27 04:13:05;;;;;;;0.10;0.10;;;;;;;8.40;55.46;101249.06;7360388;19;20034;-62
2024/02/27 04:15:31;;;;;;;0.10;0.10;;;;;;;8.40;55.54;101249.06;7363091;19;20053;-62
2024/02/27 04:18:00;;;;;;;0.10;0.10;;;;;;;8.40;55.76;101249.06;7335657;19;20390;-62
2024/02/27 04:20:26;;;;;;;0.10;0.10;;;;;;;8.42;55.74;101236.94;7362053;19;21307;-62
2024/02/27 04:22:51;;;;;;;0.10;0.10;;;;;;;8.43;55.35;101249.06;7356624;19;20022;-63
2024/02/27 04:25:17;;;;;;;0.10;0.10;;;;;;;8.44;55.73;101229.97;7347465;19;20101;-62
2024/02/27 04:27:42;;;;;;;0.10;0.10;;;;;;;8.45;55.52;101231.69;7361441;19;20011;-62
2024/02/27 04:30:08;;;;;;;0.10;0.10;;;;;;;8.47;55.33;101236.91;7355346;19;20134;-62
2024/02/27 04:32:34;;;;;;;0.10;0.10;;;;;;;8.46;55.25;101238.63;7360904;19;20021;-62
2024/02/27 04:35:01;;;;;;;0.10;0.10;;;;;;;8.50;55.51;101250.75;7364701;19;20014;-62
2024/02/27 04:37:26;;;;;;;0.10;0.10;;;;;;;8.51;55.29;101252.47;7363061;19;20852;-62
2024/02/27 04:39:52;;;;;;;0.08;0.08;;;;;;;8.53;55.32;101245.53;7362554;19;20003;-62
2024/02/27 04:42:18;;;;;;;0.10;0.10;;;;;;;8.53;55.55;101242.94;7364681;19;20018;-62
2024/02/27 04:44:43;;;;;;;0.10;0.10;;;;;;;8.57;55.35;101247.25;7361886;19;20053;-62
2024/02/27 04:47:09;;;;;;;0.10;0.10;;;;;;;8.61;55.28;101252.44;7362334;19;20041;-62
2024/02/27 04:49:34;;;;;;;0.10;0.10;;;;;;;8.61;55.41;101248.09;7363751;19;20011;-63
2024/02/27 04:52:00;;;;;;;0.10;0.10;;;;;;;8.65;55.29;101241.13;7369967;19;20011;-62
2024/02/27 04:54:26;;;;;;;0.10;0.10;;;;;;;8.66;55.31;101229.84;7380179;19;20041;-62
2024/02/27 04:56:51;;;;;;;0.10;0.10;;;;;;;8.67;55.53;101221.13;7368024;19;20474;-62
2024/02/27 04:59:16;;;;;;;0.10;0.10;;;;;;;8.68;55.58;101228.09;7378092;19;20010;-62
2024/02/27 05:01:47;;;;;;;0.10;0.10;;;;;;;8.72;55.34;101235.03;7378167;19;20022;-62
2024/02/27 05:04:13;;;;;;;0.10;0.10;;;;;;;8.71;55.56;101217.66;7377674;19;20340;-62
2024/02/27 05:06:39;;;;;;;0.10;0.10;;;;;;;8.70;55.65;101205.50;7377911;19;20044;-62
2024/02/27 05:09:05;;;;;;;0.10;0.10;;;;;;;8.60;55.20;101185.63;7376768;19;20807;-62
2024/02/27 05:11:30;;;;;;;0.10;0.10;;;;;;;8.72;55.54;101193.38;7357031;19;20011;-61
2024/02/27 05:13:56;;;;;;;0.10;0.10;;;;;;;8.74;55.56;101191.59;7375165;19;20482;-62
2024/02/27 05:16:21;;;;;;;0.05;0.05;;;;;;;8.74;55.79;101192.47;7376291;19;20510;-62
2024/02/27 05:18:47;;;;;;;0.10;0.10;;;;;;;8.75;55.97;101182.91;7371928;19;20011;-62
2024/02/27 05:21:12;;;;;;;0.10;0.10;;;;;;;8.78;55.99;101183.75;7377468;19;20015;-62
2024/02/27 05:23:38;;;;;;;0.10;0.10;;;;;;;8.77;56.28;101217.63;7374624;19;20010;-61
2024/02/27 05:26:04;;;;;;;0.10;0.10;;;;;;;8.78;56.02;101191.56;7377300;19;20078;-62
2024/02/27 05:28:29;;;;;;;0.10;0.10;;;;;;;8.81;56.00;101201.09;7375615;19;20109;-62
2024/02/27 05:30:55;;;;;;;0.10;0.10;;;;;;;8.82;56.35;101197.63;7376574;19;20695;-62
2024/02/27 05:33:21;;;;;;;0.00;0.00;;;;;;;8.84;56.19;101198.47;7377246;19;20014;-62
2024/02/27 05:35:47;;;;;;;0.00;0.00;;;;;;;8.87;55.96;101177.63;7374627;19;20707;-62
2024/02/27 05:38:12;;;;;;;0.05;0.05;;;;;;;8.88;56.78;101168.94;7371495;19;20007;-62
2024/02/27 05:40:38;;;;;;;0.10;0.10;;;;;;;8.89;56.43;101165.44;7376227;19;20021;-63
2024/02/27 05:43:03;;;;;;;0.10;0.10;;;;;;;8.87;56.38;101156.78;7377371;19;20018;-62
2024/02/27 05:45:29;;;;;;;0.08;0.08;;;;;;;8.92;56.53;101175.84;7376048;19;20523;-62
2024/02/27 05:47:54;;;;;;;0.10;0.10;;;;;;;8.95;56.37;101164.53;7377472;19;20006;-62
2024/02/27 05:50:20;;;;;;;0.10;0.10;;;;;;;8.95;56.82;101165.38;7375291;19;20015;-62
2024/02/27 05:52:47;;;;;;;0.10;0.10;;;;;;;8.96;56.91;101159.28;7371956;19;20019;-62
2024/02/27 05:55:12;;;;;;;0.10;0.10;;;;;;;8.87;56.46;101135.94;7379069;19;20010;-62
2024/02/27 05:57:38;;;;;;;0.10;0.10;;;;;;;8.98;56.55;101138.47;7375594;19;20038;-62
2024/02/27 06:00:05;;;;;;;0.10;0.10;;;;;;;8.83;56.71;101123.84;7370337;19;20014;-62
2024/02/27 06:02:30;;;;;;;0.00;0.00;;;;;;;8.99;56.70;101142.78;7370075;19;20007;-62
2024/02/27 06:04:56;;;;;;;0.10;0.10;;;;;;;9.01;56.27;101134.06;7361793;19;21067;-63
2024/02/27 06:07:21;;;;;;;0.00;0.00;;;;;;;9.01;57.12;101126.25;7369310;19;20002;-63
2024/02/27 06:09:47;;;;;;;0.10;0.10;;;;;;;9.02;56.95;101117.59;7366032;19;20006;-62
2024/02/27 06:12:12;;;;;;;0.10;0.10;;;;;;;9.02;57.18;101109.75;7370027;19;20014;-61
2024/02/27 06:14:37;;;;;;;0.10;0.10;;;;;;;9.02;56.96;101099.34;7360738;19;20497;-62
2024/02/27 06:17:03;;;;;;;0.10;0.10;;;;;;;9.04;56.67;101091.50;7372512;19;20105;-62
2024/02/27 06:19:30;;;;;;;0.00;0.00;;;;;;;9.03;57.05;101072.41;7365970;19;20010;-62
2024/02/27 06:22:11;;;;;;;0.00;0.00;;;;;;;9.04;56.59;101074.13;7369326;19;20014;-62
2024/02/27 06:24:38;;;;;;;0.10;0.10;;;;;;;9.02;57.15;101067.19;7364588;19;20371;-62
2024/02/27 06:27:04;;;;;;;0.10;0.10;;;;;;;9.02;57.22;101062.88;7367931;19;20023;-62
2024/02/27 06:29:29;;;;;;;0.10;0.10;;;;;;;8.98;57.27;101032.53;7359634;19;20684;-62
2024/02/27 06:31:55;;;;;;;0.00;0.00;;;;;;;9.05;57.29;101052.41;7368207;19;20017;-63
2024/02/27 06:34:20;;;;;;;0.10;0.10;;;;;;;9.05;57.04;101028.97;7365256;19;20355;-63
2024/02/27 06:36:48;;;;;;;0.10;0.10;;;;;;;9.05;57.76;101023.75;7370001;19;20553;-62
2024/02/27 06:39:14;;;;;;;0.10;0.10;;;;;;;9.07;57.15;101028.94;7364785;19;20015;-62
2024/02/27 06:41:39;;;;;;;0.10;0.10;;;;;;;9.06;59.03;101024.59;7363079;19;20014;-62
2024/02/27 06:44:05;;;;;;;0.10;0.10;;;;;;;9.05;59.96;101015.06;7367134;19;20010;-61
2024/02/27 06:46:31;;;;;;;0.10;0.10;;;;;;;9.01;60.18;101011.63;7372301;19;20025;-61
2024/02/27 06:48:57;;;;;;;0.00;0.00;;;;;;;8.96;59.69;100999.53;7364886;19;20082;-60
2024/02/27 06:51:22;;;;;;;0.10;0.10;;;;;;;8.88;61.71;100997.03;7368927;19;20014;-61
2024/02/27 06:53:48;;;;;;;0.10;0.10;;;;;;;8.82;62.12;100997.13;7367783;19;20797;-63
2024/02/27 06:56:14;;;;;;;0.00;0.00;;;;;;;8.76;62.32;100986.75;7367090;19;20018;-62
2024/02/27 06:58:39;;;;;;;0.00;0.00;;;;;;;8.68;63.01;100999.00;7354707;19;20128;-62
2024/02/27 07:01:05;;;;;;;0.00;0.00;;;;;;;8.62;61.97;100984.31;7366661;19;20911;-62
2024/02/27 07:03:30;;;;;;;0.10;0.10;;;;;;;8.57;64.00;100976.53;7365352;19;20014;-64
2024/02/27 07:05:57;;;;;;;0.10;0.10;;;;;;;8.50;63.92;100985.25;7367551;19;20486;-64
2024/02/27 07:08:23;;;;;;;0.10;0.10;;;;;;;8.45;64.71;100992.25;7365866;19;20010;-64
2024/02/27 07:10:48;;;;;;;0.10;0.10;;;;;;;8.42;65.40;100970.63;7363351;19;20048;-64
2024/02/27 07:13:15;;;;;;;0.10;0.10;;;;;;;8.39;64.97;100981.91;7368664;19;20422;-64
2024/02/27 07:15:41;;;;;;;0.10;0.10;;;;;;;8.37;65.83;100972.41;7358040;19;20010;-65
2024/02/27 07:18:07;;;;;;;0.10;0.10;;;;;;;8.34;64.04;100965.44;7365091;19;20146;-64
2024/02/27 07:20:32;;;;;;;0.10;0.10;;;;;;;8.34;65.63;100970.66;7365243;19;20027;-64
2024/02/27 07:22:59;;;;;;;0.10;0.10;;;;;;;8.21;64.92;100956.00;7364018;19;20006;-64
2024/02/27 07:25:25;;;;;;;0.00;0.00;;;;;;;8.32;65.51;100975.00;7365474;19;20041;-64
2024/02/27 07:27:50;;;;;;;0.10;0.10;;;;;;;8.30;64.99;100974.16;7363524;19;20085;-64
2024/02/27 07:30:16;;;;;;;0.03;0.03;;;;;;;8.33;65.02;100971.53;7362909;19;20037;-65
2024/02/27 07:32:42;;;;;;;0.00;0.00;;;;;;;8.34;64.77;100968.03;7363993;19;20019;-64
2024/02/27 07:35:08;;;;;;;0.10;0.10;;;;;;;8.31;66.29;100952.44;7365775;19;20021;-64
2024/02/27 07:37:34;;;;;;;0.08;0.08;;;;;;;8.24;64.95;100936.03;7364684;19;20386;-64
2024/02/27 07:39:59;;;;;;;0.10;0.10;;;;;;;8.22;65.91;100936.94;7361856;19;20003;-64
2024/02/27 07:42:25;;;;;;;0.10;0.10;;;;;;;8.36;66.10;100939.41;7364448;19;20006;-64
2024/02/27 07:44:50;;;;;;;0.10;0.10;;;;;;;8.41;65.41;100953.25;7364899;19;20098;-64
2024/02/27 07:47:16;;;;;;;0.00;0.00;;;;;;;8.39;65.29;100940.28;7358975;19;20010;-64
2024/02/27 07:49:45;;;;;;;0.10;0.10;;;;;;;8.45;65.56;100949.75;7367908;19;20910;-64
2024/02/27 07:52:11;;;;;;;0.00;0.00;;;;;;;8.44;66.58;100938.47;7362210;19;20478;-64
2024/02/27 07:54:37;;;;;;;0.00;0.00;;;;;;;8.44;67.16;100941.09;7366301;19;20056;-64
2024/02/27 07:57:03;;;;;;;0.10;0.10;;;;;;;8.45;66.53;100939.34;7356863;19;20007;-63
2024/02/27 07:59:29;;;;;;;0.10;0.10;;;;;;;8.47;66.42;100941.06;7363784;19;20735;-64
2024/02/27 08:01:54;;;;;;;0.10;0.10;;;;;;;8.47;66.90;100933.25;7356266;19;20025;-64
2024/02/27 08:04:20;;;;;;;0.08;0.08;;;;;;;8.48;67.47;100927.16;7363293;19;20122;-63
2024/02/27 08:06:45;;;;;;;0.10;0.10;;;;;;;8.52;66.39;100922.81;7365250;19;20002;-65
2024/02/27 08:09:10;;;;;;;0.10;0.10;;;;;;;8.54;66.20;100918.44;7361047;19;20494;-64
2024/02/27 08:11:36;;;;;;;0.10;0.10;;;;;;;8.44;66.08;100907.25;7356244;19;20014;-64
2024/02/27 08:14:02;;;;;;;0.10;0.10;;;;;;;8.55;67.49;100914.94;7365091;19;20020;-64
2024/02/27 08:16:28;;;;;;;0.10;0.10;;;;;;;8.55;67.68;100913.19;7364206;19;20125;-64
2024/02/27 08:18:54;;;;;;;0.10;0.10;;;;;;;8.57;67.23;100914.06;7365102;19;20581;-64
2024/02/27 08:21:19;;;;;;;0.10;0.10;;;;;;;8.60;67.62;100912.28;7362510;19;20010;-64
2024/02/27 08:23:44;;;;;;;0.10;0.10;;;;;;;8.61;67.41;100914.00;7359719;19;20006;-64
2024/02/27 08:26:10;;;;;;;0.10;0.10;;;;;;;8.64;67.82;100919.19;7362039;19;20430;-63
2024/02/27 08:28:35;;;;;;;0.10;0.10;;;;;;;8.65;67.62;100926.13;7358901;19;20683;-63
2024/02/27 08:31:03;;;;;;;0.00;0.00;;;;;;;8.65;68.13;100900.09;7359390;19;20015;-63
2024/02/27 08:33:28;;;;;;;;;;;;;;;8.73;65.50;100911.28;7360619;19;20018;-63
2024/02/27 08:35:54;;;;;;;0.00;0.00;;;;;;;8.72;67.87;100904.38;7336314;19;20263;-63
2024/02/27 08:38:19;;;;;;;0.00;0.00;;;;;;;8.70;68.04;100895.69;7363653;19;20426;-62
2024/02/27 08:40:45;;;;;;;0.00;0.00;;;;;;;8.73;68.40;100893.06;7362710;19;20010;-62
2024/02/27 08:43:13;;;;;;;0.05;0.05;;;;;;;8.77;68.84;100890.41;7364823;19;20003;-64
2024/02/27 08:45:39;;;;;;;0.10;0.10;;;;;;;8.66;68.68;100876.63;7358571;19;20011;-63
2024/02/27 08:48:05;;;;;;;0.10;0.10;;;;;;;8.83;68.78;100899.88;7363568;19;20014;-64
2024/02/27 08:50:31;;;;;;;0.10;0.10;;;;;;;8.87;68.67;100906.78;7359619;19;20016;-64
2024/02/27 08:52:56;;;;;;;0.10;0.10;;;;;;;8.91;68.72;100895.41;7367425;19;20018;-64
2024/02/27 08:55:24;;;;;;;0.00;0.00;;;;;;;8.87;68.08;100879.84;7364066;19;20006;-63
2024/02/27 08:57:50;;;;;;;0.05;0.05;;;;;;;9.04;68.54;100899.59;7363252;19;20430;-64
2024/02/27 09:00:17;;;;;;;0.10;0.10;;;;;;;9.09;68.83;100889.97;7361637;19;21303;-63
2024/02/27 09:02:43;;;;;;;0.10;0.10;;;;;;;9.14;69.01;100887.31;7366081;19;20014;-62
2024/02/27 09:05:09;;;;;;;0.10;0.10;;;;;;;9.20;68.29;100912.41;7357935;19;20435;-63
2024/02/27 09:07:39;;;;;;;0.10;0.10;;;;;;;9.27;68.04;100895.81;7364490;19;20038;-64
2024/02/27 09:10:09;;;;;;;0.10;0.10;;;;;;;9.32;67.98;100894.00;7359276;19;20011;-63
2024/02/27 09:12:35;;;;;;;0.05;0.05;;;;;;;9.30;69.08;100891.41;7363519;19;20019;-63
2024/02/27 09:15:01;;;;;;;0.00;0.00;;;;;;;9.33;68.61;100878.34;7363013;19;20007;-62
2024/02/27 09:17:26;;;;;;;0.10;0.10;;;;;;;9.37;69.40;100866.13;7361887;19;20006;-63
2024/02/27 09:19:51;;;;;;;0.00;0.00;;;;;;;9.41;69.17;100878.22;7362599;19;20003;-62
2024/02/27 09:22:17;;;;;;;0.10;0.10;;;;;;;9.48;68.81;100874.66;7362935;19;20003;-63
2024/02/27 09:24:43;;;;;;;0.10;0.10;;;;;;;9.55;69.72;100881.50;7360206;19;20338;-62
2024/02/27 09:27:08;;;;;;;0.10;0.10;;;;;;;9.67;69.10;100890.00;7364475;19;20051;-63
2024/02/27 09:29:34;;;;;;;0.10;0.10;;;;;;;9.76;69.48;100876.81;7360791;19;20013;-63
2024/02/27 09:31:59;;;;;;;0.10;0.10;;;;;;;9.74;69.52;100862.94;7358508;19;20022;-62
2024/02/27 09:34:25;;;;;;;0.10;0.10;;;;;;;9.92;69.58;100880.88;7362077;19;20573;-63
2024/02/27 09:36:50;;;;;;;0.10;0.10;;;;;;;9.98;68.71;100880.75;7357602;19;20026;-63
2024/02/27 09:39:16;;;;;;;0.10;0.10;;;;;;;10.00;69.32;100863.34;7368496;19;21525;-63
2024/02/27 09:41:53;;;;;;;0.10;0.10;;;;;;;10.12;69.39;100870.94;7373445;19;20044;-62
2024/02/27 09:44:19;;;;;;;0.10;0.10;;;;;;;10.14;69.26;100869.19;7370498;19;20763;-62
2024/02/27 09:46:46;;;;;;;0.03;0.03;;;;;;;10.19;69.16;100881.28;7371355;19;20007;-63
2024/02/27 09:49:13;;;;;;;0.10;0.10;;;;;;;10.10;68.43;100859.69;7366942;19;20898;-63
2024/02/27 09:51:42;;;;;;;0.10;0.10;;;;;;;10.26;69.20;100880.31;7370653;19;20082;-62
2024/02/27 09:54:08;;;;;;;0.10;0.10;;;;;;;10.29;69.18;100872.41;7365366;19;20467;-62
2024/02/27 09:56:33;;;;;;;0.10;0.10;;;;;;;10.34;69.41;100862.75;7370552;19;20048;-62
2024/02/27 09:58:59;;;;;;;0.10;0.10;;;;;;;10.40;69.07;100878.31;7361598;19;20062;-63
2024/02/27 10:01:28;;;;;;;0.08;0.08;;;;;;;10.47;68.79;100869.47;7368871;19;20007;-63
2024/02/27 10:03:54;;;;;;;0.10;0.10;;;;;;;10.50;69.18;100858.13;7369873;19;20018;-62
2024/02/27 10:06:21;;;;;;;0.10;0.10;;;;;;;10.42;69.71;100839.13;7369609;19;20962;-62
2024/02/27 10:08:54;;;;;;;0.00;0.00;;;;;;;10.67;69.58;100865.59;7369436;19;20427;-63
2024/02/27 10:11:19;;;;;;;0.10;0.10;;;;;;;10.75;69.55;100868.94;7364643;19;20018;-63
2024/02/27 10:13:45;;;;;;;0.10;0.10;;;;;;;10.86;69.73;100867.81;7371462;19;20014;-63
2024/02/27 10:16:13;;;;;;;0.10;0.10;;;;;;;11.00;69.41;100859.69;7366061;19;20010;-63
2024/02/27 10:18:39;;;;;;;0.10;0.10;;;;;;;11.06;69.37;100854.31;7371952;19;20015;-63
2024/02/27 10:21:05;;;;;;;0.08;0.08;;;;;;;11.17;69.21;100857.53;7362091;19;20521;-62
2024/02/27 10:23:31;;;;;;;0.00;0.00;;;;;;;11.27;69.11;100862.56;7367444;19;20356;-63
2024/02/27 10:26:10;;;;;;;0.10;0.10;;;;;;;11.39;68.42;100849.19;7369047;19;20014;-63
2024/02/27 10:28:36;;;;;;;0.10;0.10;;;;;;;11.37;69.14;100859.69;7370703;19;20011;-63
2024/02/27 10:31:08;;;;;;;0.10;0.10;;;;;;;11.51;68.28;100882.91;7364352;19;20022;-63
2024/02/27 10:33:34;;;;;;;0.10;0.10;;;;;;;11.52;68.57;100861.09;7367045;19;20016;-63
2024/02/27 10:36:00;;;;;;;0.10;0.10;;;;;;;11.48;68.78;100846.34;7363981;19;20019;-63
2024/02/27 10:38:27;;;;;;;0.10;0.10;;;;;;;11.64;68.97;100858.16;7365556;19;20037;-62
2024/02/27 10:40:53;;;;;;;0.10;0.10;;;;;;;11.72;68.73;100865.84;7363516;19;20074;-63
2024/02/27 10:43:19;;;;;;;0.10;0.10;;;;;;;11.80;68.39;100855.16;7366099;19;20027;-63
2024/02/27 10:45:47;;;;;;;0.10;0.10;;;;;;;12.00;69.24;100858.16;7361213;19;20715;-63
2024/02/27 10:48:13;;;;;;;0.10;0.10;;;;;;;12.05;68.84;100843.19;7363792;19;20327;-64
2024/02/27 10:50:40;;;;;;;0.15;0.15;;;;;;;12.37;67.92;100865.91;7357926;19;20017;-64
2024/02/27 10:53:06;;;;;;;0.10;0.10;;;;;;;12.45;68.27;100857.81;7367237;19;20014;-63
2024/02/27 10:55:32;;;;;;;0.10;0.10;;;;;;;12.62;68.48;100866.09;7363908;19;20018;-62
2024/02/27 10:57:59;;;;;;;0.03;0.03;;;;;;;12.81;68.33;100878.63;7364329;19;20025;-63
2024/02/27 11:00:28;;;;;;;0.00;0.00;;;;;;;12.94;67.86;100869.53;7363929;19;20017;-62
2024/02/27 11:02:56;;;;;;;0.10;0.10;;;;;;;13.09;67.70;100869.06;7364674;19;20511;-63
2024/02/27 11:05:24;;;;;;;0.10;0.10;;;;;;;13.25;67.68;100882.59;7364335;19;20137;-63
2024/02/27 11:07:52;;;;;;;0.10;0.10;;;;;;;13.41;67.18;100880.34;7362644;19;20013;-63
2024/02/27 11:10:18;;;;;;;0.10;0.10;;;;;;;13.57;67.28;100876.31;7362857;19;20015;-62
2024/02/27 11:12:48;;;;;;;0.00;0.00;;;;;;;13.79;67.14;100891.38;7363657;19;20825;-63
2024/02/27 11:15:17;;;;;;;0.10;0.10;;;;;;;13.91;66.57;100875.22;7363639;19;20053;-63
2024/02/27 11:17:48;;;;;;;0.10;0.10;;;;;;;14.00;66.41;100883.66;7364659;19;20869;-63
2024/02/27 11:20:15;;;;;;;0.10;0.10;;;;;;;14.05;65.74;100875.63;7361658;19;20449;-64
2024/02/27 11:22:43;;;;;;;0.10;0.10;;;;;;;14.08;65.78;100880.75;7363102;19;20372;-63
2024/02/27 11:25:09;;;;;;;0.10;0.10;;;;;;;14.00;65.98;100888.03;7362371;19;20034;-63